SRQ113 RPVE-RPVM
Flight info
| Callsign | SRQ113 |
|---|---|
| Flight time | 0h 47m |
| Altitude | 15000 |
| Route | KLO8A KLO TR15 ROX B473 DUDAR DUDAR3P |
| Aircraft | AT76/M-SDFGIRY/S |
Departure
| Time | 2026-04-25 14:48 |
|---|---|
| Airport | Godofredo P. Ramos Airport (RPVE) |
Arrival
| Time | 2026-04-25 15:35 |
|---|---|
| Airport | Mactan Cebu International Airport (RPVM) |
| Time | Latitude | Longitude | Altitude | Speed | Heading |
|---|---|---|---|---|---|
| 2026-04-25 14:27 | 11.92520 | 121.96303 | 27 ft | 0 kts | 65° |
| 2026-04-25 14:33 | 11.92516 | 121.96295 | 28 ft | 0 kts | 64° |
| 2026-04-25 14:33 | 11.92505 | 121.96272 | 29 ft | 6 kts | 58° |
| 2026-04-25 14:33 | 11.92484 | 121.96258 | 26 ft | 0 kts | 338° |
| 2026-04-25 14:34 | 11.92486 | 121.96258 | 26 ft | 1 kts | 338° |
| 2026-04-25 14:34 | 11.92507 | 121.96248 | 25 ft | 5 kts | 335° |
| 2026-04-25 14:35 | 11.92546 | 121.96228 | 27 ft | 6 kts | 333° |
| 2026-04-25 14:35 | 11.92590 | 121.96206 | 28 ft | 8 kts | 338° |
| 2026-04-25 14:35 | 11.92610 | 121.96200 | 27 ft | 3 kts | 351° |
| 2026-04-25 14:35 | 11.92638 | 121.96200 | 27 ft | 5 kts | 359° |
| 2026-04-25 14:36 | 11.92676 | 121.96187 | 27 ft | 7 kts | 333° |
| 2026-04-25 14:36 | 11.92714 | 121.96166 | 27 ft | 7 kts | 332° |
| 2026-04-25 14:36 | 11.92724 | 121.96161 | 27 ft | 0 kts | 332° |
| 2026-04-25 14:42 | 11.92726 | 121.96160 | 24 ft | 2 kts | 333° |
| 2026-04-25 14:42 | 11.92761 | 121.96141 | 26 ft | 7 kts | 331° |
| 2026-04-25 14:43 | 11.92798 | 121.96104 | 25 ft | 7 kts | 280° |
| 2026-04-25 14:43 | 11.92778 | 121.96045 | 27 ft | 11 kts | 242° |
| 2026-04-25 14:43 | 11.92742 | 121.95969 | 27 ft | 13 kts | 244° |
| 2026-04-25 14:43 | 11.92695 | 121.95880 | 28 ft | 15 kts | 241° |
| 2026-04-25 14:44 | 11.92648 | 121.95780 | 26 ft | 16 kts | 244° |
| 2026-04-25 14:44 | 11.92596 | 121.95678 | 24 ft | 17 kts | 242° |
| 2026-04-25 14:44 | 11.92541 | 121.95566 | 20 ft | 18 kts | 243° |
| 2026-04-25 14:44 | 11.92484 | 121.95452 | 21 ft | 18 kts | 243° |
| 2026-04-25 14:45 | 11.92428 | 121.95338 | 20 ft | 18 kts | 243° |
| 2026-04-25 14:45 | 11.92374 | 121.95232 | 17 ft | 12 kts | 240° |
| 2026-04-25 14:45 | 11.92322 | 121.95156 | 17 ft | 14 kts | 238° |
| 2026-04-25 14:45 | 11.92301 | 121.95118 | 17 ft | 1 kts | 246° |
| 2026-04-25 14:46 | 11.92305 | 121.95112 | 17 ft | 0 kts | 311° |
| 2026-04-25 14:46 | 11.92309 | 121.95112 | 19 ft | 0 kts | 347° |
| 2026-04-25 14:46 | 11.92318 | 121.95120 | 19 ft | 7 kts | 46° |
| 2026-04-25 14:46 | 11.92381 | 121.95247 | 17 ft | 37 kts | 67° |
| 2026-04-25 14:47 | 11.92548 | 121.95584 | 21 ft | 70 kts | 63° |
| 2026-04-25 14:47 | 11.92629 | 121.95746 | 24 ft | 81 kts | 62° |
| 2026-04-25 14:47 | 11.93183 | 121.96791 | 34 ft | 118 kts | 59° |
| 2026-04-25 14:47 | 11.93606 | 121.97533 | 298 ft | 124 kts | 62° |
| 2026-04-25 14:48 | 11.94063 | 121.98369 | 453 ft | 141 kts | 62° |
| 2026-04-25 14:48 | 11.94535 | 121.99299 | 638 ft | 159 kts | 65° |
| 2026-04-25 14:48 | 11.95036 | 122.00384 | 782 ft | 177 kts | 66° |
| 2026-04-25 14:48 | 11.95537 | 122.01556 | 1046 ft | 181 kts | 73° |
| 2026-04-25 14:49 | 11.95427 | 122.02832 | 1339 ft | 187 kts | 108° |
| 2026-04-25 14:49 | 11.94931 | 122.04085 | 1584 ft | 193 kts | 113° |
| 2026-04-25 14:49 | 11.94276 | 122.05297 | 1832 ft | 197 kts | 120° |
| 2026-04-25 14:49 | 11.93471 | 122.06453 | 2104 ft | 201 kts | 124° |
| 2026-04-25 14:50 | 11.92585 | 122.07574 | 2374 ft | 204 kts | 126° |
| 2026-04-25 14:50 | 11.91675 | 122.08693 | 2632 ft | 206 kts | 126° |
| 2026-04-25 14:50 | 11.90767 | 122.09830 | 2896 ft | 207 kts | 126° |
| 2026-04-25 14:50 | 11.89864 | 122.10980 | 3166 ft | 208 kts | 125° |
| 2026-04-25 14:51 | 11.88960 | 122.12134 | 3451 ft | 208 kts | 125° |
| 2026-04-25 14:51 | 11.88062 | 122.13279 | 3800 ft | 205 kts | 126° |
| 2026-04-25 14:51 | 11.87171 | 122.14413 | 4159 ft | 203 kts | 126° |
| 2026-04-25 14:51 | 11.86295 | 122.15534 | 4527 ft | 201 kts | 126° |
| 2026-04-25 14:52 | 11.85426 | 122.16644 | 4888 ft | 200 kts | 126° |
| 2026-04-25 14:52 | 11.84557 | 122.17747 | 5246 ft | 198 kts | 126° |
| 2026-04-25 14:52 | 11.83697 | 122.18841 | 5607 ft | 197 kts | 126° |
| 2026-04-25 14:52 | 11.83420 | 122.19195 | 5715 ft | 197 kts | 126° |
| 2026-04-25 14:53 | 11.82018 | 122.20975 | 6331 ft | 187 kts | 126° |
| 2026-04-25 14:53 | 11.81211 | 122.22006 | 6617 ft | 187 kts | 126° |
| 2026-04-25 14:53 | 11.80392 | 122.23051 | 6845 ft | 189 kts | 126° |
| 2026-04-25 14:53 | 11.79567 | 122.24103 | 7073 ft | 191 kts | 126° |
| 2026-04-25 14:54 | 11.78733 | 122.25164 | 7309 ft | 192 kts | 126° |
| 2026-04-25 14:54 | 11.77892 | 122.26233 | 7545 ft | 194 kts | 127° |
| 2026-04-25 14:54 | 11.77047 | 122.27308 | 7783 ft | 195 kts | 127° |
| 2026-04-25 14:54 | 11.76194 | 122.28396 | 8026 ft | 196 kts | 127° |
| 2026-04-25 14:55 | 11.75338 | 122.29486 | 8265 ft | 197 kts | 127° |
| 2026-04-25 14:55 | 11.74478 | 122.30581 | 8510 ft | 198 kts | 127° |
| 2026-04-25 14:55 | 11.73626 | 122.31666 | 8752 ft | 199 kts | 127° |
| 2026-04-25 14:55 | 11.72749 | 122.32783 | 9002 ft | 200 kts | 127° |
| 2026-04-25 14:56 | 11.71877 | 122.33891 | 9255 ft | 200 kts | 127° |
| 2026-04-25 14:56 | 11.71007 | 122.34999 | 9507 ft | 201 kts | 127° |
| 2026-04-25 14:56 | 11.70136 | 122.36108 | 9784 ft | 198 kts | 127° |
| 2026-04-25 14:56 | 11.69576 | 122.36823 | 10073 ft | 191 kts | 127° |
| 2026-04-25 14:57 | 11.68767 | 122.37857 | 10494 ft | 182 kts | 127° |
| 2026-04-25 14:57 | 11.68107 | 122.38909 | 10886 ft | 172 kts | 105° |
| 2026-04-25 14:57 | 11.67773 | 122.40467 | 11244 ft | 168 kts | 101° |
| 2026-04-25 14:57 | 11.67535 | 122.41617 | 11556 ft | 164 kts | 102° |
| 2026-04-25 14:58 | 11.67369 | 122.42387 | 11689 ft | 166 kts | 102° |
| 2026-04-25 14:58 | 11.67115 | 122.43542 | 11901 ft | 167 kts | 102° |
| 2026-04-25 14:58 | 11.66872 | 122.44694 | 12120 ft | 166 kts | 102° |
| 2026-04-25 14:58 | 11.66546 | 122.46208 | 12372 ft | 165 kts | 103° |
| 2026-04-25 14:59 | 11.66370 | 122.46987 | 12442 ft | 169 kts | 103° |
| 2026-04-25 14:59 | 11.66091 | 122.48176 | 12548 ft | 177 kts | 103° |
| 2026-04-25 14:59 | 11.65786 | 122.49406 | 12651 ft | 186 kts | 104° |
| 2026-04-25 14:59 | 11.65451 | 122.50738 | 12753 ft | 196 kts | 104° |
| 2026-04-25 15:00 | 11.65122 | 122.52105 | 12864 ft | 207 kts | 103° |
| 2026-04-25 15:00 | 11.64784 | 122.53567 | 12964 ft | 216 kts | 103° |
| 2026-04-25 15:00 | 11.64431 | 122.55092 | 13066 ft | 225 kts | 103° |
| 2026-04-25 15:00 | 11.64065 | 122.56677 | 13170 ft | 233 kts | 103° |
| 2026-04-25 15:01 | 11.63684 | 122.58306 | 13265 ft | 239 kts | 103° |
| 2026-04-25 15:01 | 11.63293 | 122.59975 | 13370 ft | 245 kts | 103° |
| 2026-04-25 15:01 | 11.62895 | 122.61682 | 13473 ft | 249 kts | 103° |
| 2026-04-25 15:01 | 11.62489 | 122.63408 | 13572 ft | 252 kts | 103° |
| 2026-04-25 15:02 | 11.62079 | 122.65163 | 13674 ft | 255 kts | 103° |
| 2026-04-25 15:02 | 11.61667 | 122.66930 | 13767 ft | 257 kts | 103° |
| 2026-04-25 15:02 | 11.61250 | 122.68712 | 13846 ft | 259 kts | 103° |
| 2026-04-25 15:02 | 11.60831 | 122.70509 | 13933 ft | 261 kts | 103° |
| 2026-04-25 15:03 | 11.60413 | 122.72308 | 14029 ft | 262 kts | 103° |
| 2026-04-25 15:03 | 11.59985 | 122.74119 | 14121 ft | 260 kts | 105° |
| 2026-04-25 15:03 | 11.59103 | 122.75682 | 14158 ft | 257 kts | 134° |
| 2026-04-25 15:03 | 11.57700 | 122.76829 | 14169 ft | 259 kts | 146° |
| 2026-04-25 15:04 | 11.56137 | 122.77754 | 14179 ft | 261 kts | 151° |
| 2026-04-25 15:04 | 11.54535 | 122.78618 | 14190 ft | 261 kts | 151° |
| 2026-04-25 15:04 | 11.52934 | 122.79489 | 14191 ft | 261 kts | 150° |
| 2026-04-25 15:04 | 11.51348 | 122.80396 | 14193 ft | 261 kts | 149° |
| 2026-04-25 15:05 | 11.49777 | 122.81322 | 14201 ft | 261 kts | 149° |
| 2026-04-25 15:05 | 11.48207 | 122.82247 | 14203 ft | 261 kts | 149° |
| 2026-04-25 15:05 | 11.46636 | 122.83174 | 14209 ft | 261 kts | 149° |
| 2026-04-25 15:06 | 11.43489 | 122.85028 | 14213 ft | 261 kts | 149° |
| 2026-04-25 15:06 | 11.41915 | 122.85956 | 14218 ft | 261 kts | 149° |
| 2026-04-25 15:06 | 11.40339 | 122.86883 | 14216 ft | 261 kts | 149° |
| 2026-04-25 15:06 | 11.38764 | 122.87811 | 14224 ft | 261 kts | 149° |
| 2026-04-25 15:07 | 11.37188 | 122.88738 | 14232 ft | 261 kts | 149° |
| 2026-04-25 15:07 | 11.35615 | 122.89665 | 14239 ft | 261 kts | 149° |
| 2026-04-25 15:07 | 11.34038 | 122.90586 | 14246 ft | 262 kts | 149° |
| 2026-04-25 15:07 | 11.32463 | 122.91514 | 14252 ft | 262 kts | 148° |
| 2026-04-25 15:08 | 11.30888 | 122.92448 | 14257 ft | 262 kts | 149° |
| 2026-04-25 15:08 | 11.29313 | 122.93375 | 14257 ft | 262 kts | 149° |
| 2026-04-25 15:08 | 11.27736 | 122.94302 | 14259 ft | 262 kts | 149° |
| 2026-04-25 15:08 | 11.26165 | 122.95227 | 14268 ft | 261 kts | 149° |
| 2026-04-25 15:09 | 11.24588 | 122.96155 | 14269 ft | 261 kts | 149° |
| 2026-04-25 15:09 | 11.23017 | 122.97080 | 14267 ft | 261 kts | 149° |
| 2026-04-25 15:09 | 11.19866 | 122.98932 | 14269 ft | 261 kts | 149° |
| 2026-04-25 15:10 | 11.18296 | 122.99857 | 14281 ft | 261 kts | 149° |
| 2026-04-25 15:10 | 11.16723 | 123.00784 | 14283 ft | 261 kts | 148° |
| 2026-04-25 15:10 | 11.13598 | 123.02619 | 14303 ft | 261 kts | 149° |
| 2026-04-25 15:11 | 11.12027 | 123.03545 | 14305 ft | 261 kts | 148° |
| 2026-04-25 15:11 | 11.10461 | 123.04475 | 14308 ft | 261 kts | 148° |
| 2026-04-25 15:11 | 11.08895 | 123.05412 | 14308 ft | 261 kts | 148° |
| 2026-04-25 15:12 | 11.05769 | 123.07279 | 14309 ft | 260 kts | 148° |
| 2026-04-25 15:12 | 11.04200 | 123.08200 | 14308 ft | 261 kts | 148° |
| 2026-04-25 15:12 | 11.02631 | 123.09125 | 14308 ft | 261 kts | 148° |
| 2026-04-25 15:12 | 11.01569 | 123.09751 | 14312 ft | 260 kts | 148° |
| 2026-04-25 15:13 | 10.99493 | 123.10971 | 14304 ft | 260 kts | 148° |
| 2026-04-25 15:13 | 10.96361 | 123.12806 | 14384 ft | 258 kts | 149° |
| 2026-04-25 15:13 | 10.94775 | 123.13733 | 14178 ft | 267 kts | 149° |
| 2026-04-25 15:14 | 10.93134 | 123.14696 | 13881 ft | 278 kts | 148° |
| 2026-04-25 15:14 | 10.91433 | 123.15693 | 13563 ft | 285 kts | 149° |
| 2026-04-25 15:14 | 10.89701 | 123.16709 | 13237 ft | 290 kts | 148° |
| 2026-04-25 15:14 | 10.87942 | 123.17744 | 12908 ft | 293 kts | 148° |
| 2026-04-25 15:15 | 10.86168 | 123.18788 | 12589 ft | 296 kts | 148° |
| 2026-04-25 15:15 | 10.84380 | 123.19837 | 12268 ft | 298 kts | 149° |
| 2026-04-25 15:15 | 10.82580 | 123.20892 | 11996 ft | 297 kts | 148° |
| 2026-04-25 15:15 | 10.80802 | 123.21934 | 11794 ft | 293 kts | 148° |
| 2026-04-25 15:16 | 10.79055 | 123.22958 | 11583 ft | 289 kts | 148° |
| 2026-04-25 15:16 | 10.77320 | 123.23975 | 11387 ft | 286 kts | 148° |
| 2026-04-25 15:16 | 10.73861 | 123.26013 | 10787 ft | 289 kts | 147° |
| 2026-04-25 15:17 | 10.70882 | 123.28640 | 10172 ft | 280 kts | 134° |
| 2026-04-25 15:17 | 10.69502 | 123.30026 | 9877 ft | 278 kts | 134° |
| 2026-04-25 15:17 | 10.68105 | 123.31375 | 9556 ft | 276 kts | 136° |
| 2026-04-25 15:18 | 10.66689 | 123.32686 | 9227 ft | 275 kts | 136° |
| 2026-04-25 15:18 | 10.63868 | 123.35293 | 8588 ft | 272 kts | 136° |
| 2026-04-25 15:18 | 10.62468 | 123.36588 | 8269 ft | 272 kts | 136° |
| 2026-04-25 15:19 | 10.61097 | 123.37862 | 7962 ft | 270 kts | 136° |
| 2026-04-25 15:19 | 10.60156 | 123.38731 | 7751 ft | 270 kts | 136° |
| 2026-04-25 15:19 | 10.58328 | 123.40430 | 7345 ft | 269 kts | 136° |
| 2026-04-25 15:19 | 10.56961 | 123.41700 | 7134 ft | 264 kts | 136° |
| 2026-04-25 15:20 | 10.55614 | 123.42952 | 6915 ft | 261 kts | 136° |
| 2026-04-25 15:20 | 10.54286 | 123.44185 | 6719 ft | 258 kts | 136° |
| 2026-04-25 15:20 | 10.52955 | 123.45409 | 6512 ft | 257 kts | 136° |
| 2026-04-25 15:20 | 10.51642 | 123.46623 | 6298 ft | 255 kts | 136° |
| 2026-04-25 15:21 | 10.50331 | 123.47838 | 6079 ft | 254 kts | 136° |
| 2026-04-25 15:21 | 10.49029 | 123.49044 | 5860 ft | 253 kts | 136° |
| 2026-04-25 15:21 | 10.47730 | 123.50247 | 5636 ft | 252 kts | 136° |
| 2026-04-25 15:21 | 10.46434 | 123.51447 | 5419 ft | 252 kts | 136° |
| 2026-04-25 15:22 | 10.45144 | 123.52642 | 5201 ft | 251 kts | 136° |
| 2026-04-25 15:22 | 10.43849 | 123.53840 | 4991 ft | 251 kts | 136° |
| 2026-04-25 15:22 | 10.42568 | 123.55026 | 4785 ft | 250 kts | 136° |
| 2026-04-25 15:22 | 10.41286 | 123.56212 | 4594 ft | 249 kts | 135° |
| 2026-04-25 15:23 | 10.40007 | 123.57394 | 4400 ft | 248 kts | 136° |
| 2026-04-25 15:23 | 10.38732 | 123.58576 | 4193 ft | 247 kts | 135° |
| 2026-04-25 15:23 | 10.37470 | 123.59742 | 4084 ft | 243 kts | 135° |
| 2026-04-25 15:23 | 10.36233 | 123.60889 | 4032 ft | 238 kts | 135° |
| 2026-04-25 15:24 | 10.35023 | 123.62012 | 4011 ft | 233 kts | 135° |
| 2026-04-25 15:24 | 10.33773 | 123.63014 | 3994 ft | 227 kts | 149° |
| 2026-04-25 15:24 | 10.32347 | 123.63700 | 3989 ft | 226 kts | 153° |
| 2026-04-25 15:24 | 10.31396 | 123.64121 | 3990 ft | 225 kts | 154° |
| 2026-04-25 15:25 | 10.29492 | 123.64981 | 3984 ft | 223 kts | 152° |
| 2026-04-25 15:25 | 10.28101 | 123.65663 | 3988 ft | 221 kts | 151° |
| 2026-04-25 15:25 | 10.26731 | 123.66364 | 3980 ft | 220 kts | 150° |
| 2026-04-25 15:25 | 10.25367 | 123.67062 | 3983 ft | 219 kts | 150° |
| 2026-04-25 15:26 | 10.24063 | 123.67797 | 3983 ft | 215 kts | 137° |
| 2026-04-25 15:26 | 10.23270 | 123.69065 | 3897 ft | 211 kts | 110° |
| 2026-04-25 15:26 | 10.22713 | 123.70415 | 3785 ft | 209 kts | 112° |
| 2026-04-25 15:26 | 10.22073 | 123.71734 | 3655 ft | 207 kts | 116° |
| 2026-04-25 15:27 | 10.21354 | 123.72973 | 3577 ft | 203 kts | 120° |
| 2026-04-25 15:27 | 10.20577 | 123.74150 | 3490 ft | 198 kts | 122° |
| 2026-04-25 15:27 | 10.19030 | 123.76384 | 3273 ft | 189 kts | 122° |
| 2026-04-25 15:28 | 10.18287 | 123.77459 | 3173 ft | 183 kts | 122° |
| 2026-04-25 15:28 | 10.17571 | 123.78498 | 3086 ft | 175 kts | 122° |
| 2026-04-25 15:28 | 10.16880 | 123.79500 | 3000 ft | 172 kts | 122° |
| 2026-04-25 15:28 | 10.16197 | 123.80492 | 2899 ft | 170 kts | 121° |
| 2026-04-25 15:29 | 10.15576 | 123.81464 | 2795 ft | 157 kts | 109° |
| 2026-04-25 15:29 | 10.15680 | 123.82491 | 2685 ft | 148 kts | 59° |
| 2026-04-25 15:29 | 10.16277 | 123.83324 | 2583 ft | 145 kts | 54° |
| 2026-04-25 15:29 | 10.16932 | 123.84091 | 2489 ft | 143 kts | 50° |
| 2026-04-25 15:30 | 10.17615 | 123.84814 | 2439 ft | 140 kts | 48° |
| 2026-04-25 15:30 | 10.18304 | 123.85496 | 2412 ft | 136 kts | 47° |
| 2026-04-25 15:30 | 10.18976 | 123.86150 | 2401 ft | 132 kts | 47° |
| 2026-04-25 15:30 | 10.19611 | 123.86767 | 2403 ft | 120 kts | 47° |
| 2026-04-25 15:31 | 10.20205 | 123.87338 | 2400 ft | 115 kts | 47° |
| 2026-04-25 15:31 | 10.20775 | 123.87893 | 2400 ft | 112 kts | 47° |
| 2026-04-25 15:31 | 10.21332 | 123.88443 | 2345 ft | 113 kts | 47° |
| 2026-04-25 15:31 | 10.21927 | 123.89011 | 2230 ft | 117 kts | 47° |
| 2026-04-25 15:32 | 10.22534 | 123.89601 | 2072 ft | 123 kts | 45° |
| 2026-04-25 15:32 | 10.23162 | 123.90201 | 1953 ft | 125 kts | 46° |
| 2026-04-25 15:32 | 10.23769 | 123.90840 | 1822 ft | 126 kts | 47° |
| 2026-04-25 15:33 | 10.24993 | 123.92132 | 1590 ft | 128 kts | 51° |
| 2026-04-25 15:33 | 10.25601 | 123.92783 | 1476 ft | 124 kts | 47° |
| 2026-04-25 15:33 | 10.26202 | 123.93393 | 1288 ft | 121 kts | 46° |
| 2026-04-25 15:33 | 10.26787 | 123.94002 | 1084 ft | 120 kts | 45° |
| 2026-04-25 15:34 | 10.27405 | 123.94564 | 914 ft | 119 kts | 44° |
| 2026-04-25 15:34 | 10.28015 | 123.95169 | 630 ft | 125 kts | 45° |
| 2026-04-25 15:34 | 10.28605 | 123.95776 | 383 ft | 116 kts | 45° |
| 2026-04-25 15:34 | 10.28784 | 123.95963 | 352 ft | 112 kts | 43° |
| 2026-04-25 15:35 | 10.30097 | 123.97273 | 31 ft | 39 kts | 49° |
| 2026-04-25 15:35 | 10.30194 | 123.97382 | 32 ft | 17 kts | 46° |
| 2026-04-25 15:35 | 10.30275 | 123.97465 | 33 ft | 16 kts | 45° |